Albuquerque (ABQ/KABQ)

Map

Information

Location
Albuquerque, NM
Local Time
16:30 / 4:30 pm
GMT Time
22:30 / 10:30 pm
Gates
Unassigned
No FAA reported delays
METAR KABQ 272152Z 21009G17KT 160V240 10SM FEW095 BKN120 20/M08 A2983 RMK AO2 SLP056 VIRGA SW-NW T02001078
TAF KABQ 271741Z 2718/2818 21005KT P6SM FEW080 SCT130 FM272100 23012G18KT P6SM SCT080 SCT120 FM280000 26007KT P6SM BKN080 BKN110 FM280600 21005KT P6SM VCSH BKN050 OVC080
  • No charts available